Allentown, New Jersey
Current Conditions -  °F | °C
As of 10:58 AM on Sunday 23 Nov 2014 (Local Time) from KWRI Reporting Station
Clear Clear  
Wind Chill: 11°   Ceiling: Unl
Heat Index: 11°   Visibility: 10mi
Dew Point: -5°   Wind: 9mph
Humidity: 32%   Direction: 250°WSW
Pressure: 30.17"   Gusts: NA
Location:  40.18°N, 74.58°W
Report Text: KWRI 231558Z AUTO 25008KT 10SM CLR 11/M05 A3017 RMK AO2 SLP220 T01101054
Loading
Personal Weather Stations






























Interactive Weather Map New forecast layout! Learn more

10-Day Weather Forecast

Advertisements
Track Severe Weather on mobile